createdAt,value
2022-08-04T00:01:51.812Z,100659.81
2022-08-04T00:04:31.609Z,100655.13
2022-08-04T00:07:14.051Z,100659.50
2022-08-04T00:09:55.710Z,100658.66
2022-08-04T00:12:31.756Z,100652.56
2022-08-04T00:15:10.468Z,100645.09
2022-08-04T00:17:54.717Z,100652.31
2022-08-04T00:20:29.029Z,100650.66
2022-08-04T00:22:57.741Z,100647.34
2022-08-04T00:25:25.508Z,100650.09
2022-08-04T00:27:54.461Z,100648.44
2022-08-04T00:30:21.840Z,100655.31
2022-08-04T00:33:02.269Z,100651.44
2022-08-04T00:35:36.190Z,100656.97
2022-08-04T00:38:06.130Z,100650.63
2022-08-04T00:40:48.854Z,100641.25
2022-08-04T00:43:34.265Z,100632.38
2022-08-04T00:46:19.962Z,100632.69
2022-08-04T00:49:08.829Z,100636.25
2022-08-04T00:51:36.085Z,100629.06
2022-08-04T00:54:44.935Z,100626.00
2022-08-04T00:57:43.563Z,100623.53
2022-08-04T01:00:14.230Z,100629.50
2022-08-04T01:02:53.332Z,100624.53
2022-08-04T01:05:50.597Z,100625.06
2022-08-04T01:08:53.112Z,100623.44
2022-08-04T01:11:31.623Z,100626.16
2022-08-04T01:14:18.005Z,100626.41
2022-08-04T01:16:51.743Z,100620.00
2022-08-04T01:20:07.765Z,100620.91
2022-08-04T01:23:25.190Z,100622.75
2022-08-04T01:26:43.134Z,100633.69
2022-08-04T01:29:23.902Z,100627.06
2022-08-04T01:32:07.266Z,100631.19
2022-08-04T01:34:40.751Z,100627.28
2022-08-04T01:37:31.675Z,100621.44
2022-08-04T01:40:17.669Z,100626.25
2022-08-04T01:42:47.689Z,100624.88
2022-08-04T01:45:36.776Z,100607.19
2022-08-04T01:48:06.841Z,100621.38
2022-08-04T01:50:43.278Z,100624.34
2022-08-04T01:53:16.401Z,100626.25
2022-08-04T01:55:54.795Z,100625.75
2022-08-04T01:58:25.280Z,100623.50
2022-08-04T02:01:05.125Z,100619.47
2022-08-04T02:04:19.911Z,100620.44
2022-08-04T02:07:10.150Z,100618.84
2022-08-04T02:09:53.949Z,100617.69
2022-08-04T02:12:49.661Z,100611.22
2022-08-04T02:15:22.847Z,100609.06
2022-08-04T02:18:24.876Z,100608.47
2022-08-04T02:20:59.703Z,100599.34
2022-08-04T02:23:39.175Z,100604.91
2022-08-04T02:26:22.746Z,100594.41
2022-08-04T02:29:08.759Z,100594.41
2022-08-04T02:31:46.253Z,100598.81
2022-08-04T02:34:47.670Z,100589.72
2022-08-04T02:37:17.647Z,100596.59
2022-08-04T02:39:48.922Z,100594.28
2022-08-04T02:42:24.512Z,100592.09
2022-08-04T02:44:52.220Z,100597.84
2022-08-04T02:48:28.905Z,100586.22
2022-08-04T02:50:37.584Z,100589.59
2022-08-04T02:53:08.834Z,100582.13
2022-08-04T02:55:41.628Z,100587.75
2022-08-04T02:58:23.185Z,100592.19
2022-08-04T03:00:51.999Z,100591.41
2022-08-04T03:03:44.746Z,100584.84
2022-08-04T03:06:11.972Z,100585.97
2022-08-04T03:09:08.332Z,100581.53
2022-08-04T03:11:44.609Z,100578.69
2022-08-04T03:14:36.814Z,100578.88
2022-08-04T03:17:58.979Z,100580.03
2022-08-04T03:20:41.352Z,100580.59
2022-08-04T03:23:48.758Z,100582.81
2022-08-04T03:26:26.201Z,100577.84
2022-08-04T03:29:43.577Z,100576.44
2022-08-04T03:32:22.873Z,100580.56
2022-08-04T03:35:27.757Z,100580.16
2022-08-04T03:38:22.841Z,100573.81
2022-08-04T03:41:11.862Z,100576.63
2022-08-04T03:44:03.189Z,100576.41
2022-08-04T03:46:42.027Z,100566.47
2022-08-04T03:49:40.770Z,100570.50
2022-08-04T03:52:53.803Z,100566.91
2022-08-04T03:55:33.780Z,100559.75
2022-08-04T03:58:33.948Z,100569.75
2022-08-04T04:01:18.232Z,100569.91
2022-08-04T04:04:18.710Z,100568.00
2022-08-04T04:07:21.536Z,100567.41
2022-08-04T04:10:19.191Z,100568.59
2022-08-04T04:13:09.748Z,100565.72
2022-08-04T04:16:28.959Z,100565.78
2022-08-04T04:19:12.230Z,100579.66
2022-08-04T04:22:22.302Z,100572.78
2022-08-04T04:25:06.165Z,100578.53
2022-08-04T04:27:48.097Z,100577.41
2022-08-04T04:30:22.508Z,100577.34
2022-08-04T04:33:01.891Z,100575.16
2022-08-04T04:35:47.920Z,100576.31
2022-08-04T04:38:34.425Z,100580.16
2022-08-04T04:41:40.039Z,100589.19
2022-08-04T04:44:53.780Z,100587.53
2022-08-04T04:48:08.645Z,100578.53
2022-08-04T04:51:11.994Z,100573.91
2022-08-04T04:54:13.505Z,100579.72
2022-08-04T04:57:09.762Z,100586.38
2022-08-04T04:59:41.793Z,100591.41
2022-08-04T05:02:08.944Z,100586.50
2022-08-04T05:04:55.475Z,100585.69
2022-08-04T05:08:43.492Z,100587.16
2022-08-04T05:11:40.378Z,100588.84
2022-08-04T05:14:37.122Z,100591.63
2022-08-04T05:17:10.591Z,100580.91
2022-08-04T05:20:01.404Z,100589.19
2022-08-04T05:22:49.542Z,100591.19
2022-08-04T05:25:23.620Z,100588.47
2022-08-04T05:28:24.716Z,100595.09
2022-08-04T05:30:59.117Z,100602.56
2022-08-04T05:33:34.457Z,100596.84
2022-08-04T05:36:21.057Z,100595.19
2022-08-04T05:38:55.328Z,100600.75
2022-08-04T05:41:22.805Z,100599.94
2022-08-04T05:43:56.458Z,100601.31
2022-08-04T05:46:25.847Z,100603.53
2022-08-04T05:48:56.885Z,100593.88
2022-08-04T05:51:29.413Z,100601.59
2022-08-04T05:53:58.845Z,100603.28
2022-08-04T05:56:26.589Z,100604.91
2022-08-04T05:58:55.065Z,100598.59
2022-08-04T06:01:55.353Z,100587.31
2022-08-04T06:04:27.959Z,100594.28
2022-08-04T06:06:55.793Z,100588.75
2022-08-04T06:09:23.204Z,100584.88
2022-08-04T06:12:00.988Z,100590.97
2022-08-04T06:14:43.788Z,100589.03
2022-08-04T06:19:57.589Z,100579.94
2022-08-04T06:20:19.431Z,100583.28
2022-08-04T06:23:03.869Z,100581.91
2022-08-04T06:25:43.233Z,100590.72
2022-08-04T06:28:11.714Z,100586.59
2022-08-04T06:30:49.730Z,100589.34
2022-08-04T06:33:54.301Z,100590.16
2022-08-04T06:36:24.601Z,100596.81
2022-08-04T06:38:58.415Z,100594.88
2022-08-04T06:41:29.478Z,100597.09
2022-08-04T06:44:03.309Z,100593.22
2022-08-04T06:46:32.071Z,100586.31
2022-08-04T06:48:59.414Z,100596.00
2022-08-04T06:51:38.021Z,100600.94
2022-08-04T06:54:12.492Z,100593.22
2022-08-04T06:56:41.140Z,100592.97
2022-08-04T06:59:11.025Z,100591.91
2022-08-04T07:01:42.869Z,100587.19
2022-08-04T07:04:10.390Z,100592.69
2022-08-04T07:06:46.778Z,100595.47
2022-08-04T07:09:18.413Z,100599.34
2022-08-04T07:11:47.238Z,100592.13
2022-08-04T07:14:36.020Z,100597.94
2022-08-04T07:17:09.385Z,100597.34
2022-08-04T07:19:37.180Z,100594.81
2022-08-04T07:22:25.381Z,100592.59
2022-08-04T07:24:57.821Z,100590.69
2022-08-04T07:27:48.743Z,100601.44
2022-08-04T07:30:15.394Z,100593.13
2022-08-04T07:32:47.602Z,100601.41
2022-08-04T07:36:10.152Z,100598.06
2022-08-04T07:38:26.510Z,100586.97
2022-08-04T07:40:56.137Z,100594.97
2022-08-04T07:43:23.907Z,100594.09
2022-08-04T07:46:10.324Z,100594.84
2022-08-04T07:48:46.503Z,100599.56
2022-08-04T07:51:15.553Z,100593.44
2022-08-04T07:53:54.065Z,100590.91
2022-08-04T07:56:28.351Z,100594.47
2022-08-04T07:58:56.214Z,100591.63
2022-08-04T08:01:24.759Z,100585.50
2022-08-04T08:03:55.029Z,100593.50
2022-08-04T08:06:43.423Z,100596.25
2022-08-04T08:09:15.164Z,100597.03
2022-08-04T08:12:36.051Z,100589.22
2022-08-04T08:14:38.460Z,100591.41
2022-08-04T08:17:07.085Z,100589.75
2022-08-04T08:19:35.472Z,100582.25
2022-08-04T08:22:20.910Z,100569.13
2022-08-04T08:24:48.256Z,100583.97
2022-08-04T08:27:36.812Z,100580.50
2022-08-04T08:30:06.713Z,100581.56
2022-08-04T08:32:33.890Z,100587.06
2022-08-04T08:35:04.053Z,100582.56
2022-08-04T08:37:41.823Z,100581.19
2022-08-04T08:40:15.774Z,100583.88
2022-08-04T08:42:53.329Z,100580.22
2022-08-04T08:45:43.421Z,100572.38
2022-08-04T08:48:58.717Z,100585.66
2022-08-04T08:51:56.137Z,100583.34
2022-08-04T08:55:12.413Z,100587.75
2022-08-04T08:58:00.928Z,100581.78
2022-08-04T09:00:47.956Z,100579.44
2022-08-04T09:03:24.988Z,100572.38
2022-08-04T09:06:13.008Z,100568.81
2022-08-04T09:08:53.990Z,100571.16
2022-08-04T09:11:50.123Z,100562.97
2022-08-04T09:14:39.833Z,100557.16
2022-08-04T09:17:27.221Z,100559.34
2022-08-04T09:20:04.014Z,100559.50
2022-08-04T09:22:49.941Z,100553.88
2022-08-04T09:25:34.529Z,100562.25
2022-08-04T09:28:50.917Z,100566.84
2022-08-04T09:31:19.966Z,100563.94
2022-08-04T09:33:58.936Z,100566.72
2022-08-04T09:36:46.650Z,100565.50
2022-08-04T09:39:37.207Z,100577.88
2022-08-04T09:42:34.675Z,100575.31
2022-08-04T09:45:26.183Z,100575.41
2022-08-04T09:48:08.061Z,100575.25
2022-08-04T09:50:50.010Z,100568.59
2022-08-04T09:53:42.008Z,100575.78
2022-08-04T09:56:28.137Z,100579.41
2022-08-04T09:59:49.848Z,100570.94
2022-08-04T10:02:26.677Z,100575.41
2022-08-04T10:05:03.628Z,100578.06
2022-08-04T10:08:16.636Z,100579.47
2022-08-04T10:11:12.263Z,100575.91
2022-08-04T10:13:51.852Z,100573.38
2022-08-04T10:16:44.045Z,100574.97
2022-08-04T10:19:35.217Z,100551.56
2022-08-04T10:22:28.849Z,100579.97
2022-08-04T10:26:03.101Z,100576.13
2022-08-04T10:28:14.185Z,100573.25
2022-08-04T10:31:00.809Z,100568.81
2022-08-04T10:33:32.941Z,100570.50
2022-08-04T10:36:04.603Z,100576.44
2022-08-04T10:38:40.474Z,100579.31
2022-08-04T10:41:39.882Z,100579.88
2022-08-04T10:44:48.329Z,100581.34
2022-08-04T10:47:43.872Z,100577.75
2022-08-04T10:50:23.473Z,100583.34
2022-08-04T10:53:05.784Z,100584.63
2022-08-04T10:56:06.450Z,100586.50
2022-08-04T10:58:48.714Z,100586.50
2022-08-04T11:02:01.519Z,100583.25
2022-08-04T11:04:49.832Z,100584.81
2022-08-04T11:07:18.169Z,100586.03
2022-08-04T11:09:46.538Z,100584.47
2022-08-04T11:12:26.303Z,100588.97
2022-08-04T11:15:01.271Z,100588.56
2022-08-04T11:17:36.021Z,100586.44
2022-08-04T11:20:33.999Z,100595.34
2022-08-04T11:23:02.331Z,100586.47
2022-08-04T11:25:48.482Z,100591.91
2022-08-04T11:29:12.705Z,100586.97
2022-08-04T11:31:48.449Z,100597.47
2022-08-04T11:34:23.508Z,100597.16
2022-08-04T11:37:28.707Z,100599.78
2022-08-04T11:40:33.050Z,100613.25
2022-08-04T11:43:09.852Z,100615.91
2022-08-04T11:45:50.831Z,100626.59
2022-08-04T11:48:25.757Z,100618.56
2022-08-04T11:50:55.149Z,100610.16
2022-08-04T11:53:26.214Z,100614.28
2022-08-04T11:56:11.275Z,100615.25
2022-08-04T11:58:39.856Z,100611.63
2022-08-04T12:01:27.997Z,100606.22
2022-08-04T12:04:23.731Z,100597.84
2022-08-04T12:07:29.586Z,100594.88
2022-08-04T12:10:41.823Z,100605.56
2022-08-04T12:13:31.583Z,100603.09
2022-08-04T12:16:13.955Z,100614.59
2022-08-04T12:18:58.469Z,100635.66
2022-08-04T12:21:39.189Z,100628.41
2022-08-04T12:24:20.024Z,100636.47
2022-08-04T12:27:16.850Z,100647.66
2022-08-04T12:30:57.502Z,100641.72
2022-08-04T12:33:12.814Z,100644.63
2022-08-04T12:36:10.375Z,100640.19
2022-08-04T12:39:06.548Z,100626.31
2022-08-04T12:42:01.378Z,100630.88
2022-08-04T12:44:53.945Z,100610.47
2022-08-04T12:47:29.726Z,100604.09
2022-08-04T12:50:03.956Z,100609.41
2022-08-04T12:55:29.988Z,100607.97
2022-08-04T12:57:58.488Z,100607.66
2022-08-04T13:00:43.746Z,100614.28
2022-08-04T13:03:14.724Z,100614.63
2022-08-04T13:06:00.642Z,100619.56
2022-08-04T13:08:28.385Z,100629.72
2022-08-04T13:11:20.418Z,100619.38
2022-08-04T13:14:10.944Z,100625.47
2022-08-04T13:17:02.284Z,100627.63
2022-08-04T13:19:31.376Z,100634.50
2022-08-04T13:22:29.045Z,100629.56
2022-08-04T13:26:40.624Z,100626.34
2022-08-04T13:27:48.724Z,100630.34
2022-08-04T13:30:25.809Z,100626.28
2022-08-04T13:32:58.761Z,100609.13
2022-08-04T13:35:56.018Z,100620.34
2022-08-04T13:38:31.926Z,100615.91
2022-08-04T13:41:04.720Z,100602.22
2022-08-04T13:44:19.628Z,100619.78
2022-08-04T13:46:53.204Z,100616.78
2022-08-04T13:50:00.880Z,100617.41
2022-08-04T13:52:29.646Z,100609.03
2022-08-04T13:55:36.299Z,100612.28
2022-08-04T13:58:14.293Z,100619.09
2022-08-04T14:01:09.754Z,100623.22
2022-08-04T14:03:54.481Z,100604.69
2022-08-04T14:06:49.381Z,100615.06
2022-08-04T14:09:22.465Z,100616.06
2022-08-04T14:12:46.490Z,100621.28
2022-08-04T14:14:59.942Z,100614.72
2022-08-04T14:17:30.529Z,100606.97
2022-08-04T14:20:00.879Z,100614.25
2022-08-04T14:22:28.212Z,100604.47
2022-08-04T14:24:59.225Z,100607.44
2022-08-04T14:27:47.992Z,100601.75
2022-08-04T14:30:28.909Z,100607.56
2022-08-04T14:34:01.090Z,100604.78
2022-08-04T14:36:04.664Z,100601.75
2022-08-04T14:39:00.441Z,100608.53
2022-08-04T14:41:32.418Z,100595.88
2022-08-04T14:44:02.952Z,100600.88
2022-08-04T14:46:36.496Z,100599.44
2022-08-04T14:49:10.478Z,100598.00
2022-08-04T14:51:46.397Z,100603.59
2022-08-04T14:54:34.557Z,100594.78
2022-08-04T14:57:05.626Z,100597.69
2022-08-04T15:00:01.635Z,100605.63
2022-08-04T15:02:38.559Z,100603.63
2022-08-04T15:06:02.507Z,100611.91
2022-08-04T15:08:18.310Z,100609.53
2022-08-04T15:11:03.872Z,100607.75
2022-08-04T15:13:38.737Z,100608.91
2022-08-04T15:16:08.359Z,100610.25
2022-08-04T15:18:37.487Z,100607.16
2022-08-04T15:21:05.588Z,100596.47
2022-08-04T15:23:39.819Z,100600.59
2022-08-04T15:26:15.426Z,100598.94
2022-08-04T15:29:10.984Z,100608.50
2022-08-04T15:32:05.739Z,100598.31
2022-08-04T15:34:50.443Z,100604.56
2022-08-04T15:37:31.108Z,100606.56
2022-08-04T15:40:33.005Z,100596.16
2022-08-04T15:43:27.529Z,100600.41
2022-08-04T15:46:43.903Z,100593.81
2022-08-04T15:49:18.017Z,100597.03
2022-08-04T15:52:12.173Z,100602.25
2022-08-04T15:54:52.617Z,100600.13
2022-08-04T15:58:01.987Z,100600.38
2022-08-04T16:00:49.592Z,100599.38
2022-08-04T16:03:55.330Z,100602.47
2022-08-04T16:06:27.477Z,100604.50
2022-08-04T16:09:03.366Z,100611.00
2022-08-04T16:11:40.524Z,100619.59
2022-08-04T16:14:12.075Z,100631.00
2022-08-04T16:16:42.213Z,100629.16
2022-08-04T16:20:02.642Z,100624.41
2022-08-04T16:22:39.439Z,100628.72
2022-08-04T16:25:48.124Z,100645.44
2022-08-04T16:28:34.378Z,100648.00
2022-08-04T16:31:16.494Z,100657.34
2022-08-04T16:33:46.910Z,100661.88
2022-08-04T16:37:01.567Z,100665.81
2022-08-04T16:39:31.667Z,100668.72
2022-08-04T16:42:36.396Z,100671.06
2022-08-04T16:45:09.061Z,100668.69
2022-08-04T16:47:48.456Z,100669.31
2022-08-04T16:50:20.718Z,100665.72
2022-08-04T16:52:55.598Z,100668.06
2022-08-04T16:55:27.820Z,100659.00
2022-08-04T16:57:58.769Z,100656.31
2022-08-04T17:00:35.796Z,100649.72
2022-08-04T17:03:21.357Z,100636.53
2022-08-04T17:05:48.988Z,100640.22
2022-08-04T17:08:35.495Z,100621.88
2022-08-04T17:11:02.790Z,100618.66
2022-08-04T17:14:01.769Z,100599.28
2022-08-04T17:16:40.267Z,100584.13
2022-08-04T17:19:25.283Z,100577.31
2022-08-04T17:22:02.636Z,100572.41
2022-08-04T17:24:33.550Z,100570.25
2022-08-04T17:27:00.952Z,100565.56
2022-08-04T17:29:46.560Z,100573.19
2022-08-04T17:32:21.160Z,100570.50
2022-08-04T17:35:07.685Z,100568.66
2022-08-04T17:37:52.058Z,100566.22
2022-08-04T17:44:05.241Z,100566.09
2022-08-04T17:46:52.437Z,100553.84
2022-08-04T17:49:24.816Z,100552.19
2022-08-04T17:52:41.470Z,100559.81
2022-08-04T17:55:16.304Z,100555.19
2022-08-04T17:58:21.046Z,100563.97
2022-08-04T18:01:16.388Z,100566.75
2022-08-04T18:05:05.694Z,100569.19
2022-08-04T18:08:39.364Z,100564.34
2022-08-04T18:10:56.071Z,100558.88
2022-08-04T18:13:26.011Z,100569.09
2022-08-04T18:16:21.864Z,100576.53
2022-08-04T18:19:10.174Z,100578.06
2022-08-04T18:21:59.343Z,100590.03
2022-08-04T18:24:34.536Z,100591.44
2022-08-04T18:27:45.694Z,100589.50
2022-08-04T18:30:38.222Z,100590.44
2022-08-04T18:33:40.148Z,100593.03
2022-08-04T18:36:33.182Z,100590.94
2022-08-04T18:42:05.366Z,100600.09
2022-08-04T18:44:52.144Z,100604.56
2022-08-04T18:47:29.549Z,100599.69
2022-08-04T18:51:00.985Z,100607.41
2022-08-04T18:53:08.239Z,100602.00
2022-08-04T18:55:56.519Z,100597.44
2022-08-04T18:58:27.363Z,100607.50
2022-08-04T19:01:04.161Z,100611.16
2022-08-04T19:03:45.596Z,100616.78
2022-08-04T19:06:33.277Z,100626.63
2022-08-04T19:09:00.928Z,100638.66
2022-08-04T19:11:54.592Z,100633.84
2022-08-04T19:14:22.679Z,100640.34
2022-08-04T19:16:49.983Z,100633.59
2022-08-04T19:19:18.213Z,100639.22
2022-08-04T19:22:00.575Z,100642.06
2022-08-04T19:24:34.451Z,100635.00
2022-08-04T19:27:08.355Z,100636.97
2022-08-04T19:29:45.166Z,100643.78
2022-08-04T19:32:31.908Z,100663.00
2022-08-04T19:34:59.061Z,100673.00
2022-08-04T19:38:01.211Z,100678.63
2022-08-04T19:43:36.406Z,100679.78
2022-08-04T19:46:17.705Z,100684.56
2022-08-04T19:49:03.576Z,100682.09
2022-08-04T19:51:38.922Z,100698.25
2022-08-04T19:54:16.693Z,100698.84
2022-08-04T19:56:51.282Z,100699.00
2022-08-04T19:59:21.826Z,100697.09
2022-08-04T20:01:56.317Z,100701.00
2022-08-04T20:04:41.983Z,64766.84
2022-08-04T20:07:14.295Z,64766.84
2022-08-04T20:10:00.145Z,64766.84
2022-08-04T20:12:33.016Z,64766.84
2022-08-04T20:15:00.594Z,100715.16
2022-08-04T20:18:08.210Z,100718.53
2022-08-04T20:20:15.063Z,100716.94
2022-08-04T20:22:52.553Z,100721.38
2022-08-04T20:25:36.436Z,100735.81
2022-08-04T20:28:10.461Z,100734.75
2022-08-04T20:31:11.214Z,100743.63
2022-08-04T20:33:49.205Z,100735.09
2022-08-04T20:36:41.280Z,100742.03
2022-08-04T20:39:18.544Z,100739.28
2022-08-04T20:42:07.260Z,100731.34
2022-08-04T20:44:46.206Z,100742.72
2022-08-04T20:47:21.225Z,100753.28
2022-08-04T20:49:49.685Z,100751.59
2022-08-04T20:52:20.720Z,100755.22
2022-08-04T20:54:56.180Z,100759.97
2022-08-04T20:57:48.393Z,100769.34
2022-08-04T21:00:26.385Z,100767.19
2022-08-04T21:03:15.510Z,100766.66
2022-08-04T21:05:44.315Z,100779.94
2022-08-04T21:08:30.233Z,100790.78
2022-08-04T21:11:00.782Z,100793.56
2022-08-04T21:13:51.964Z,100791.91
2022-08-04T21:16:53.821Z,100802.69
2022-08-04T21:19:15.221Z,100803.53
2022-08-04T21:21:50.093Z,100806.63
2022-08-04T21:24:26.313Z,100806.31
2022-08-04T21:26:56.853Z,100814.06
2022-08-04T21:29:42.412Z,100813.78
2022-08-04T21:32:13.385Z,100816.84
2022-08-04T21:35:00.390Z,100828.19
2022-08-04T21:37:56.655Z,100824.31
2022-08-04T21:40:38.791Z,100825.72
2022-08-04T21:43:08.257Z,100825.47
2022-08-04T21:45:36.237Z,100830.16
2022-08-04T21:48:05.036Z,100822.38
2022-08-04T21:50:32.178Z,100817.16
2022-08-04T21:53:03.064Z,100811.31
2022-08-04T21:56:04.976Z,100811.06
2022-08-04T21:58:38.476Z,100813.84
2022-08-04T22:01:51.571Z,100814.97
2022-08-04T22:04:25.781Z,100829.59
2022-08-04T22:07:11.286Z,100832.09
2022-08-04T22:09:41.618Z,100829.34
2022-08-04T22:12:23.321Z,100822.69
2022-08-04T22:14:57.596Z,100840.41
2022-08-04T22:17:29.447Z,100845.66
2022-08-04T22:20:04.330Z,100843.44
2022-08-04T22:22:43.205Z,100846.75
2022-08-04T22:25:18.512Z,100844.53
2022-08-04T22:28:04.442Z,100842.59
2022-08-04T22:30:37.556Z,100863.38
2022-08-04T22:33:23.597Z,100863.91
2022-08-04T22:36:13.061Z,100852.84
2022-08-04T22:39:06.565Z,100835.91
2022-08-04T22:41:48.300Z,100804.97
2022-08-04T22:44:16.412Z,100797.75
2022-08-04T22:46:43.713Z,100771.25
2022-08-04T22:49:12.968Z,100776.22
2022-08-04T22:51:50.624Z,100763.47
2022-08-04T22:54:36.638Z,100744.66
2022-08-04T22:57:03.834Z,100754.91
2022-08-04T22:59:42.620Z,100749.38
2022-08-04T23:02:10.396Z,100724.75
2022-08-04T23:04:38.025Z,100697.06
2022-08-04T23:07:09.489Z,100744.56
2022-08-04T23:09:50.777Z,100749.75
2022-08-04T23:12:27.280Z,100719.69
2022-08-04T23:15:13.418Z,100702.28
2022-08-04T23:17:43.816Z,100702.56
2022-08-04T23:20:39.723Z,100699.53
2022-08-04T23:23:12.296Z,100697.31
2022-08-04T23:26:08.700Z,100693.75
2022-08-04T23:28:38.457Z,100700.00
2022-08-04T23:31:05.693Z,100700.25
2022-08-04T23:33:50.460Z,100701.91
2022-08-04T23:36:29.361Z,100698.06
2022-08-04T23:39:03.897Z,100681.22
2022-08-04T23:41:57.707Z,100681.22
2022-08-04T23:44:26.629Z,100669.09
2022-08-04T23:48:15.079Z,100662.69
2022-08-04T23:50:05.629Z,100677.63
2022-08-04T23:52:52.780Z,100687.34
2022-08-04T23:55:21.300Z,100688.19
2022-08-04T23:58:18.874Z,100691.50
